Time;durP1;ratioP1;P1;durP2;ratioP2;P2;SDS_P1;SDS_P2;PMS_P1;PMS_P2;Temp;Humidity;BMP_temperature;BMP_pressure;BME280_temperature;BME280_humidity;BME280_pressure;Samples;Min_cycle;Max_cycle;Signal;HPM_P1;HPM_P2
2023/09/17 00:00:31;;;;;;;4.30;3.45;;;14.40;99.90;;;;;;5011536;28;20443;-77
2023/09/17 00:02:56;;;;;;;5.00;3.40;;;14.30;99.90;;;;;;5012746;28;20026;-76
2023/09/17 00:05:22;;;;;;;4.05;3.55;;;14.40;99.90;;;;;;5011047;28;20028;-77
2023/09/17 00:07:48;;;;;;;3.90;3.60;;;14.40;99.90;;;;;;5011412;28;20037;-76
2023/09/17 00:10:14;;;;;;;4.07;3.58;;;14.40;99.90;;;;;;5012446;28;20036;-76
2023/09/17 00:12:40;;;;;;;4.78;3.92;;;14.40;99.90;;;;;;5012664;28;20030;-76
2023/09/17 00:15:07;;;;;;;4.25;3.85;;;14.50;99.90;;;;;;5012221;28;20057;-76
2023/09/17 00:17:32;;;;;;;6.93;3.60;;;14.50;99.90;;;;;;5012443;28;20448;-77
2023/09/17 00:19:58;;;;;;;3.92;3.17;;;14.50;99.90;;;;;;5012487;28;20061;-76
2023/09/17 00:22:24;;;;;;;5.05;3.67;;;14.50;99.90;;;;;;5011192;28;20124;-76
2023/09/17 00:24:50;;;;;;;4.93;3.88;;;14.50;99.90;;;;;;5010942;28;20033;-76
2023/09/17 00:27:16;;;;;;;5.90;4.07;;;14.50;99.90;;;;;;5012388;28;20026;-76
2023/09/17 00:29:41;;;;;;;5.07;4.20;;;14.40;99.90;;;;;;5011100;28;20033;-76
2023/09/17 00:32:07;;;;;;;6.78;3.75;;;14.40;99.90;;;;;;5012436;28;20491;-77
2023/09/17 00:34:33;;;;;;;4.18;3.55;;;14.50;99.90;;;;;;5011997;28;20159;-76
2023/09/17 00:37:00;;;;;;;4.38;3.97;;;14.40;99.90;;;;;;5010818;28;20120;-76
2023/09/17 00:39:27;;;;;;;4.82;4.32;;;14.40;99.90;;;;;;5012126;28;20022;-76
2023/09/17 00:41:52;;;;;;;3.67;3.30;;;14.30;99.90;;;;;;5010911;28;20400;-77
2023/09/17 00:44:18;;;;;;;3.70;3.00;;;14.30;99.90;;;;;;5010562;28;20025;-77
2023/09/17 00:46:44;;;;;;;7.60;3.95;;;14.30;99.90;;;;;;5012130;28;20021;-76
2023/09/17 00:49:14;;;;;;;3.72;3.30;;;14.30;99.90;;;;;;5012042;28;20026;-76
2023/09/17 00:51:43;;;;;;;4.00;3.58;;;14.20;99.90;;;;;;5012224;28;20029;-77
2023/09/17 00:54:10;;;;;;;5.20;4.05;;;14.20;99.90;;;;;;5010497;28;20080;-76
2023/09/17 00:56:37;;;;;;;5.93;4.95;;;14.10;99.90;;;;;;5010826;28;20021;-76
2023/09/17 00:59:05;;;;;;;6.88;3.58;;;14.20;99.90;;;;;;5011511;28;20029;-76
2023/09/17 01:01:31;;;;;;;4.90;4.32;;;14.10;99.90;;;;;;5014820;28;20396;-77
2023/09/17 01:03:57;;;;;;;3.47;3.03;;;14.10;99.90;;;;;;5014511;28;20037;-77
2023/09/17 01:06:23;;;;;;;5.18;3.45;;;14.00;99.90;;;;;;5015921;28;20553;-78
2023/09/17 01:08:50;;;;;;;5.80;3.50;;;14.10;99.90;;;;;;5014652;28;20051;-77
2023/09/17 01:11:18;;;;;;;3.83;3.50;;;14.10;99.90;;;;;;5015934;28;20057;-76
2023/09/17 01:13:49;;;;;;;5.15;3.83;;;14.10;99.90;;;;;;5015521;28;20022;-76
2023/09/17 01:16:16;;;;;;;6.43;4.70;;;14.00;99.90;;;;;;5015892;28;20022;-77
2023/09/17 01:18:42;;;;;;;3.92;3.47;;;14.00;99.90;;;;;;5015722;28;20041;-76
2023/09/17 01:21:38;;;;;;;4.72;3.85;;;13.90;99.90;;;;;;5014425;28;20415;-76
2023/09/17 01:24:15;;;;;;;5.20;3.83;;;13.90;99.90;;;;;;5015291;28;20022;-76
2023/09/17 01:26:46;;;;;;;4.22;3.83;;;13.90;99.90;;;;;;5014339;28;20113;-76
2023/09/17 01:29:23;;;;;;;5.13;3.88;;;13.90;99.90;;;;;;5015629;28;20061;-76
2023/09/17 01:31:49;;;;;;;5.35;3.55;;;13.90;99.90;;;;;;5015706;28;20022;-76
2023/09/17 01:34:15;;;;;;;3.78;3.35;;;13.90;99.90;;;;;;5013975;28;20083;-76
2023/09/17 01:36:42;;;;;;;4.80;3.22;;;13.90;99.90;;;;;;5015221;28;20045;-77
2023/09/17 01:39:19;;;;;;;4.30;3.88;;;13.90;99.90;;;;;;5015427;28;20077;-76
2023/09/17 01:41:46;;;;;;;5.70;4.05;;;13.80;99.90;;;;;;5014456;28;20455;-77
2023/09/17 01:44:13;;;;;;;4.38;3.47;;;13.70;99.90;;;;;;5015027;28;20018;-76
2023/09/17 01:46:40;;;;;;;5.32;3.42;;;13.70;99.90;;;;;;5014892;28;20026;-76
2023/09/17 01:49:09;;;;;;;3.80;3.25;;;13.70;99.90;;;;;;5013777;28;20484;-76
2023/09/17 01:51:38;;;;;;;5.65;3.78;;;13.70;99.90;;;;;;5015143;28;20026;-76
2023/09/17 01:54:04;;;;;;;3.88;3.47;;;13.60;99.90;;;;;;5014829;28;20022;-77
2023/09/17 01:56:30;;;;;;;4.72;3.75;;;13.70;99.90;;;;;;5014920;28;20021;-76
2023/09/17 01:58:55;;;;;;;9.02;4.88;;;13.70;99.90;;;;;;5015058;28;20037;-76
2023/09/17 02:01:21;;;;;;;3.85;3.45;;;13.70;99.90;;;;;;5014908;28;20105;-76
2023/09/17 02:03:48;;;;;;;3.90;3.47;;;13.60;99.90;;;;;;5013459;28;20025;-76
2023/09/17 02:06:14;;;;;;;4.72;3.95;;;13.60;99.90;;;;;;5015274;28;20080;-76
2023/09/17 02:08:39;;;;;;;5.53;3.88;;;13.60;99.90;;;;;;5015261;28;20026;-76
2023/09/17 02:11:06;;;;;;;4.32;3.47;;;13.70;99.90;;;;;;5012346;28;20081;-76
2023/09/17 02:13:32;;;;;;;4.03;3.63;;;13.70;99.90;;;;;;5014599;28;20093;-76
2023/09/17 02:15:57;;;;;;;5.63;3.80;;;13.70;99.90;;;;;;5014482;28;20026;-76
2023/09/17 02:18:23;;;;;;;3.95;3.55;;;13.70;99.90;;;;;;5014794;28;20025;-76
2023/09/17 02:20:48;;;;;;;3.97;3.38;;;13.60;99.90;;;;;;5013391;28;20145;-76
2023/09/17 02:23:14;;;;;;;4.10;3.70;;;13.50;99.90;;;;;;5013366;28;20088;-77
2023/09/17 02:25:40;;;;;;;4.65;3.58;;;13.50;99.90;;;;;;5013060;28;20116;-76
2023/09/17 02:28:05;;;;;;;2.95;2.70;;;13.50;99.90;;;;;;5013299;28;20092;-76
2023/09/17 02:30:31;;;;;;;3.35;3.05;;;13.50;99.90;;;;;;5013054;28;20026;-76
2023/09/17 02:32:56;;;;;;;4.45;3.65;;;13.40;99.90;;;;;;5014293;28;20026;-76
2023/09/17 02:35:22;;;;;;;6.22;3.58;;;13.40;99.90;;;;;;5013985;28;20026;-77
2023/09/17 02:37:48;;;;;;;5.47;3.50;;;13.40;99.90;;;;;;5013055;28;20057;-76
2023/09/17 02:40:14;;;;;;;3.72;3.35;;;13.40;99.90;;;;;;5012894;28;20029;-77
2023/09/17 02:42:41;;;;;;;3.55;2.88;;;13.30;99.90;;;;;;5014158;28;20026;-76
2023/09/17 02:45:08;;;;;;;7.20;3.20;;;13.30;99.90;;;;;;5014002;28;20053;-76
2023/09/17 02:47:34;;;;;;;4.53;3.38;;;13.40;99.90;;;;;;5014092;28;20029;-76
2023/09/17 02:50:00;;;;;;;5.45;3.30;;;13.30;99.90;;;;;;5013976;28;20419;-76
2023/09/17 02:52:26;;;;;;;4.72;2.88;;;13.40;99.90;;;;;;5012951;28;20022;-76
2023/09/17 02:54:54;;;;;;;5.35;2.88;;;13.40;99.90;;;;;;5013776;28;20045;-76
2023/09/17 02:57:19;;;;;;;3.67;3.03;;;13.30;99.90;;;;;;5012724;28;20164;-77
2023/09/17 02:59:46;;;;;;;7.53;3.65;;;13.30;99.90;;;;;;5012668;28;20121;-76
2023/09/17 03:02:11;;;;;;;3.95;3.33;;;13.20;99.90;;;;;;5013803;28;20050;-76
2023/09/17 03:04:37;;;;;;;4.90;3.60;;;13.20;99.90;;;;;;5012318;28;20444;-77
2023/09/17 03:07:04;;;;;;;6.80;3.38;;;13.20;99.90;;;;;;5013652;28;20030;-76
2023/09/17 03:09:30;;;;;;;3.42;2.90;;;13.10;99.90;;;;;;5012267;28;20026;-76
2023/09/17 03:11:55;;;;;;;7.25;2.72;;;13.20;99.90;;;;;;5012404;28;20033;-76
2023/09/17 03:14:21;;;;;;;3.22;2.90;;;13.10;99.90;;;;;;5013336;28;20029;-76
2023/09/17 03:16:47;;;;;;;6.32;3.38;;;13.10;99.90;;;;;;5012057;28;20104;-76
2023/09/17 03:19:13;;;;;;;6.60;3.35;;;13.10;99.90;;;;;;5012314;28;20026;-76
2023/09/17 03:21:40;;;;;;;4.90;4.07;;;13.10;99.90;;;;;;5013150;28;20104;-77
2023/09/17 03:24:07;;;;;;;4.47;3.20;;;13.00;99.90;;;;;;5013232;28;20109;-76
2023/09/17 03:26:33;;;;;;;3.35;3.05;;;13.10;99.90;;;;;;5013451;28;20033;-76
2023/09/17 03:28:58;;;;;;;4.35;3.42;;;13.00;99.90;;;;;;5013431;28;20029;-76
2023/09/17 03:31:24;;;;;;;4.80;3.50;;;13.00;99.90;;;;;;5011989;28;20102;-76
2023/09/17 03:33:50;;;;;;;4.45;3.25;;;13.10;99.90;;;;;;5011612;28;20112;-76
2023/09/17 03:36:15;;;;;;;3.63;3.33;;;13.10;99.90;;;;;;5012965;28;20038;-76
2023/09/17 03:38:41;;;;;;;3.47;3.08;;;13.00;99.90;;;;;;5013099;28;20037;-77
2023/09/17 03:41:07;;;;;;;3.55;3.10;;;13.00;99.90;;;;;;5011868;28;20022;-76
2023/09/17 03:43:34;;;;;;;5.10;3.10;;;13.00;99.90;;;;;;5012951;28;20052;-76
2023/09/17 03:46:06;;;;;;;3.88;3.47;;;12.90;99.90;;;;;;5011458;28;20392;-76
2023/09/17 03:48:32;;;;;;;3.55;3.25;;;12.90;99.90;;;;;;5011798;28;20032;-78
2023/09/17 03:50:59;;;;;;;9.23;3.65;;;12.90;99.90;;;;;;5012961;28;20026;-76
2023/09/17 03:53:26;;;;;;;5.65;3.13;;;12.90;99.90;;;;;;5011643;28;20029;-76
2023/09/17 03:55:52;;;;;;;4.70;3.22;;;12.90;99.90;;;;;;5012720;28;20018;-76
2023/09/17 03:58:18;;;;;;;7.95;3.10;;;12.90;99.90;;;;;;5012824;28;20412;-76
2023/09/17 04:00:44;;;;;;;4.50;3.30;;;12.90;99.90;;;;;;5011351;28;20033;-76
2023/09/17 04:03:09;;;;;;;6.40;4.05;;;12.80;99.90;;;;;;5012758;28;20026;-76
2023/09/17 04:05:36;;;;;;;5.35;3.40;;;12.80;99.90;;;;;;5011133;28;20432;-76
2023/09/17 04:08:03;;;;;;;5.93;3.33;;;12.80;99.90;;;;;;5012765;28;20484;-76
2023/09/17 04:10:28;;;;;;;4.10;3.20;;;12.80;99.90;;;;;;5012490;28;20026;-76
2023/09/17 04:12:54;;;;;;;4.25;3.25;;;12.80;99.90;;;;;;5012699;28;20129;-76
2023/09/17 04:15:20;;;;;;;6.28;4.32;;;12.80;99.90;;;;;;5012291;28;20042;-76
2023/09/17 04:17:50;;;;;;;5.47;3.65;;;12.80;99.90;;;;;;5012523;28;20026;-76
2023/09/17 04:20:18;;;;;;;8.75;3.20;;;12.80;99.90;;;;;;5012570;28;20022;-76
2023/09/17 04:22:46;;;;;;;5.68;3.47;;;12.90;99.90;;;;;;5011228;28;20022;-76
2023/09/17 04:25:13;;;;;;;4.18;3.60;;;12.90;99.90;;;;;;5012287;28;20048;-76
2023/09/17 04:27:41;;;;;;;5.70;4.20;;;12.80;99.90;;;;;;5012241;28;20030;-77
2023/09/17 04:30:08;;;;;;;7.85;3.88;;;12.80;99.90;;;;;;5011027;28;20443;-76
2023/09/17 04:32:37;;;;;;;4.88;4.18;;;12.70;99.90;;;;;;5011057;28;20030;-76
2023/09/17 04:35:05;;;;;;;9.90;4.32;;;12.70;99.90;;;;;;5010047;28;20022;-76
2023/09/17 04:37:32;;;;;;;4.63;3.35;;;12.70;99.90;;;;;;5012146;28;20034;-76
2023/09/17 04:39:57;;;;;;;4.80;3.88;;;12.70;99.90;;;;;;5011258;28;20399;-76
2023/09/17 04:42:23;;;;;;;6.00;4.45;;;12.70;99.90;;;;;;5012217;28;20029;-76
2023/09/17 04:44:48;;;;;;;6.97;4.28;;;12.70;99.90;;;;;;5011879;28;20156;-76
2023/09/17 04:47:14;;;;;;;6.60;4.15;;;12.70;99.90;;;;;;5012001;28;20029;-76
2023/09/17 04:49:39;;;;;;;4.75;4.10;;;12.70;99.90;;;;;;5012020;28;20583;-76
2023/09/17 04:52:05;;;;;;;6.32;4.18;;;12.70;99.90;;;;;;5011005;28;20026;-77
2023/09/17 04:54:31;;;;;;;4.07;3.35;;;12.80;99.90;;;;;;5010792;28;20125;-76
2023/09/17 04:56:56;;;;;;;4.07;3.17;;;12.70;99.90;;;;;;5012326;28;20026;-77
2023/09/17 04:59:22;;;;;;;7.22;3.90;;;12.70;99.90;;;;;;5012979;28;20388;-76
2023/09/17 05:01:48;;;;;;;9.35;4.35;;;12.90;99.90;;;;;;5011234;28;20076;-77
2023/09/17 05:04:15;;;;;;;7.15;5.40;;;15.20;99.90;;;;;;5013407;28;20026;-76
2023/09/17 05:06:42;;;;;;;7.28;5.35;;;16.30;99.90;;;;;;5013306;28;20089;-77
2023/09/17 05:09:08;;;;;;;6.43;4.22;;;16.20;99.90;;;;;;5010960;28;20579;-77
2023/09/17 05:11:34;;;;;;;4.43;3.70;;;16.30;99.90;;;;;;5011856;28;20058;-78
2023/09/17 05:14:01;;;;;;;7.07;4.32;;;16.40;99.90;;;;;;5012031;28;20117;-77
2023/09/17 05:16:27;;;;;;;5.47;4.28;;;16.00;99.90;;;;;;5011078;28;20021;-77
2023/09/17 05:18:53;;;;;;;4.82;3.00;;;15.40;99.90;;;;;;5011032;28;20026;-76
2023/09/17 05:21:19;;;;;;;3.00;2.70;;;14.80;99.90;;;;;;5010992;28;20400;-76
2023/09/17 05:23:45;;;;;;;4.68;2.97;;;14.30;99.90;;;;;;5011875;28;20569;-77
2023/09/17 05:26:11;;;;;;;3.00;2.40;;;14.00;99.90;;;;;;5012134;28;20037;-77
2023/09/17 05:28:36;;;;;;;2.95;2.75;;;13.80;99.90;;;;;;5012078;28;20026;-77
2023/09/17 05:31:03;;;;;;;3.97;2.83;;;13.70;99.90;;;;;;5011809;28;20018;-77
2023/09/17 05:33:29;;;;;;;5.32;4.82;;;13.60;99.90;;;;;;5010753;28;20140;-77
2023/09/17 05:35:58;;;;;;;4.65;3.70;;;13.50;99.90;;;;;;5011626;28;20087;-76
2023/09/17 05:38:26;;;;;;;4.43;3.22;;;13.50;99.90;;;;;;5010922;28;20034;-77
2023/09/17 05:40:52;;;;;;;7.97;3.72;;;13.40;99.90;;;;;;5010987;28;20370;-78
2023/09/17 05:43:17;;;;;;;4.50;3.58;;;13.50;99.90;;;;;;5010801;28;20026;-77
2023/09/17 05:45:43;;;;;;;4.47;3.80;;;13.60;99.90;;;;;;5013331;28;20131;-77
2023/09/17 05:48:09;;;;;;;5.68;4.22;;;13.60;99.90;;;;;;5015805;28;20044;-77
2023/09/17 05:50:34;;;;;;;5.15;2.97;;;13.80;99.90;;;;;;5014413;28;20120;-77
2023/09/17 05:53:00;;;;;;;6.25;3.67;;;13.70;99.90;;;;;;5014479;28;20515;-78
2023/09/17 05:55:25;;;;;;;3.83;3.38;;;13.80;99.90;;;;;;5013987;28;20391;-77
2023/09/17 05:57:51;;;;;;;5.25;4.05;;;13.90;99.90;;;;;;5014189;28;20021;-77
2023/09/17 06:00:17;;;;;;;4.57;3.83;;;14.00;99.90;;;;;;5015466;28;20026;-77
2023/09/17 06:02:43;;;;;;;5.95;3.97;;;14.00;99.90;;;;;;5014262;28;20594;-77
2023/09/17 06:05:09;;;;;;;5.43;4.30;;;14.00;99.90;;;;;;5013894;28;20030;-76
2023/09/17 06:07:35;;;;;;;6.28;4.30;;;14.20;99.90;;;;;;5015257;28;20030;-77
2023/09/17 06:10:00;;;;;;;4.97;4.00;;;14.30;99.90;;;;;;5013772;28;20034;-76
2023/09/17 06:12:26;;;;;;;6.35;3.83;;;14.30;99.90;;;;;;5015195;28;20053;-77
2023/09/17 06:14:52;;;;;;;8.45;5.20;;;14.40;99.90;;;;;;5014844;28;20052;-78
2023/09/17 06:17:17;;;;;;;4.63;4.05;;;14.40;99.90;;;;;;5015189;28;20029;-76
2023/09/17 06:19:43;;;;;;;4.80;4.40;;;14.50;99.90;;;;;;5015005;28;20038;-77
2023/09/17 06:22:09;;;;;;;5.53;4.93;;;14.50;99.90;;;;;;5013780;28;20033;-77
2023/09/17 06:24:35;;;;;;;5.15;4.65;;;14.50;99.90;;;;;;5013350;28;20037;-77
2023/09/17 06:27:00;;;;;;;6.00;4.47;;;14.70;99.90;;;;;;5013380;28;20025;-77
2023/09/17 06:29:26;;;;;;;7.10;4.63;;;14.80;99.90;;;;;;5013438;28;20037;-76
2023/09/17 06:31:52;;;;;;;5.15;4.35;;;15.00;99.90;;;;;;5013554;28;20111;-77
2023/09/17 06:34:17;;;;;;;6.10;4.90;;;15.10;99.90;;;;;;5014622;28;20522;-77
2023/09/17 06:36:43;;;;;;;5.07;4.40;;;15.20;99.90;;;;;;5033358;23;20490;-77
2023/09/17 06:39:08;;;;;;;7.60;4.35;;;15.30;99.90;;;;;;5014476;28;20037;-78
2023/09/17 06:41:34;;;;;;;5.90;4.38;;;15.40;99.90;;;;;;5015772;28;20476;-77
2023/09/17 06:44:00;;;;;;;6.50;4.30;;;15.50;99.90;;;;;;5014884;28;20029;-77
2023/09/17 06:46:26;;;;;;;5.95;4.35;;;15.60;99.90;;;;;;5015936;28;20033;-77
2023/09/17 06:48:52;;;;;;;7.70;4.72;;;15.60;99.90;;;;;;5030984;28;20113;-77
2023/09/17 06:51:18;;;;;;;5.05;4.55;;;15.70;99.90;;;;;;5030970;28;20032;-80
2023/09/17 06:53:43;;;;;;;6.53;5.30;;;15.80;99.90;;;;;;5030517;28;20056;-78
2023/09/17 06:56:12;;;;;;;6.78;5.35;;;16.00;99.90;;;;;;5014952;28;20388;-76
2023/09/17 06:58:37;;;;;;;6.03;4.90;;;16.10;99.90;;;;;;5015073;28;20026;-76
2023/09/17 07:01:04;;;;;;;8.40;5.10;;;16.30;99.90;;;;;;5015429;28;20022;-77
2023/09/17 07:03:30;;;;;;;7.80;4.65;;;16.40;99.90;;;;;;5015140;28;20017;-77
2023/09/17 07:05:55;;;;;;;6.45;5.30;;;16.50;99.90;;;;;;5014966;28;20072;-77
2023/09/17 07:08:21;;;;;;;6.18;5.15;;;16.80;99.90;;;;;;5030576;28;20112;-76
2023/09/17 07:10:47;;;;;;;6.05;4.30;;;16.90;99.90;;;;;;5015663;28;20026;-78
2023/09/17 07:13:12;;;;;;;6.63;5.43;;;17.00;99.90;;;;;;5015736;28;20026;-78
2023/09/17 07:15:38;;;;;;;5.55;5.00;;;17.20;99.90;;;;;;5014371;28;20361;-79
2023/09/17 07:18:07;;;;;;;4.90;4.50;;;17.40;99.90;;;;;;5014664;28;20022;-77
2023/09/17 07:20:33;;;;;;;5.90;4.95;;;17.40;99.90;;;;;;5030831;28;20048;-78
2023/09/17 07:22:58;;;;;;;12.63;8.88;;;17.60;99.90;;;;;;5014178;28;20404;-76
2023/09/17 07:25:24;;;;;;;7.95;7.10;;;17.70;99.90;;;;;;5014001;28;20076;-78
2023/09/17 07:27:49;;;;;;;12.45;6.70;;;17.80;99.90;;;;;;5014012;28;20472;-77
2023/09/17 07:30:17;;;;;;;9.00;6.05;;;17.90;99.90;;;;;;5029883;28;20125;-76
2023/09/17 07:32:42;;;;;;;7.07;6.38;;;18.00;99.90;;;;;;5014550;28;20014;-76
2023/09/17 07:35:08;;;;;;;5.57;4.28;;;18.10;99.90;;;;;;5014608;28;20722;-76
2023/09/17 07:37:34;;;;;;;6.03;4.68;;;18.20;99.90;;;;;;5014230;28;20083;-76
2023/09/17 07:40:03;;;;;;;4.40;3.95;;;18.40;99.90;;;;;;5014411;28;20050;-77
2023/09/17 07:42:29;;;;;;;4.97;3.95;;;18.60;99.90;;;;;;5029301;28;20045;-77
2023/09/17 07:44:55;;;;;;;3.50;3.20;;;18.70;99.90;;;;;;5030813;28;20018;-77
2023/09/17 07:47:20;;;;;;;4.25;3.85;;;18.90;99.90;;;;;;5033413;28;20045;-77
2023/09/17 07:49:46;;;;;;;3.72;3.25;;;18.90;99.90;;;;;;5033820;28;20021;-76
2023/09/17 07:52:15;;;;;;;4.55;4.05;;;19.00;99.90;;;;;;5015590;28;20491;-76
2023/09/17 07:54:42;;;;;;;5.85;4.05;;;19.00;99.90;;;;;;5013216;28;20018;-76
2023/09/17 07:57:09;;;;;;;4.15;3.38;;;19.20;99.90;;;;;;5013496;28;20022;-76
2023/09/17 07:59:35;;;;;;;12.20;3.83;;;19.20;99.90;;;;;;5012290;28;20121;-76
2023/09/17 08:02:02;;;;;;;4.82;4.00;;;19.40;99.90;;;;;;5013340;28;20076;-75
2023/09/17 08:04:28;;;;;;;2.78;2.55;;;19.50;99.90;;;;;;5011663;28;20030;-76
2023/09/17 08:06:54;;;;;;;5.88;4.20;;;19.70;99.90;;;;;;5012081;28;20529;-76
2023/09/17 08:09:20;;;;;;;6.35;3.33;;;19.80;99.90;;;;;;5013480;28;20026;-77
2023/09/17 08:11:45;;;;;;;5.05;3.97;;;19.90;99.90;;;;;;5013331;28;20057;-75
2023/09/17 08:14:11;;;;;;;4.43;3.25;;;19.90;99.90;;;;;;5014530;28;20022;-76
2023/09/17 08:16:37;;;;;;;3.50;3.20;;;20.10;99.90;;;;;;5014340;28;20034;-77
2023/09/17 08:19:04;;;;;;;4.55;3.75;;;20.10;99.90;;;;;;5014078;28;20025;-77
2023/09/17 08:21:29;;;;;;;4.28;3.40;;;20.20;99.90;;;;;;5012971;28;20373;-77
2023/09/17 08:23:55;;;;;;;4.15;3.75;;;20.40;99.90;;;;;;5012348;28;20052;-76
2023/09/17 08:26:22;;;;;;;3.50;3.20;;;20.50;99.90;;;;;;5011843;28;20021;-77
2023/09/17 08:28:49;;;;;;;2.63;2.42;;;20.50;99.90;;;;;;5011482;28;20504;-78
2023/09/17 08:31:16;;;;;;;4.97;3.45;;;20.60;99.90;;;;;;5011325;28;20044;-77
2023/09/17 08:33:42;;;;;;;4.05;3.40;;;20.60;99.90;;;;;;5011481;28;20026;-77
2023/09/17 08:36:09;;;;;;;3.88;3.47;;;20.70;99.90;;;;;;5011700;28;20046;-77
2023/09/17 08:38:35;;;;;;;5.50;3.65;;;20.90;99.90;;;;;;5011424;28;20127;-76
2023/09/17 08:41:03;;;;;;;6.55;3.28;;;20.90;99.90;;;;;;5012819;28;20022;-77
2023/09/17 08:43:29;;;;;;;8.30;3.17;;;21.10;99.90;;;;;;5012856;28;20022;-77
2023/09/17 08:45:56;;;;;;;3.67;2.92;;;21.30;99.90;;;;;;5012556;28;20030;-77
2023/09/17 08:48:22;;;;;;;4.00;3.65;;;21.40;99.90;;;;;;5012442;28;20361;-76
2023/09/17 08:50:50;;;;;;;3.88;3.55;;;21.40;99.90;;;;;;5011179;28;20029;-77
2023/09/17 08:53:22;;;;;;;4.32;3.47;;;21.40;99.90;;;;;;5011276;28;20476;-76
2023/09/17 08:55:54;;;;;;;3.53;3.22;;;21.50;99.90;;;;;;5012126;28;20046;-77
2023/09/17 08:58:25;;;;;;;4.50;2.80;;;21.80;99.90;;;;;;5011043;28;20018;-77
2023/09/17 09:00:54;;;;;;;4.22;3.50;;;22.00;99.90;;;;;;5011234;28;20037;-77
2023/09/17 09:03:22;;;;;;;3.38;3.08;;;22.00;99.90;;;;;;5012225;28;20034;-77
2023/09/17 09:05:49;;;;;;;4.43;3.50;;;22.10;99.90;;;;;;5012119;28;20105;-77
2023/09/17 09:08:17;;;;;;;6.63;3.17;;;22.20;99.90;;;;;;5012185;28;20030;-77
2023/09/17 09:10:43;;;;;;;3.08;2.78;;;22.30;99.90;;;;;;5012019;28;20500;-77
2023/09/17 09:13:09;;;;;;;4.63;2.80;;;22.40;99.90;;;;;;5011138;28;20072;-76
2023/09/17 09:15:36;;;;;;;5.30;3.08;;;22.50;99.90;;;;;;5010847;28;20026;-78
2023/09/17 09:18:02;;;;;;;5.55;2.50;;;22.40;99.90;;;;;;5010552;28;20488;-77
2023/09/17 09:20:28;;;;;;;4.00;3.03;;;22.60;99.90;;;;;;5012068;28;20427;-79
2023/09/17 09:22:54;;;;;;;3.30;2.58;;;22.60;99.90;;;;;;5015884;28;20076;-76
2023/09/17 09:25:20;;;;;;;5.63;2.92;;;22.70;99.90;;;;;;5014360;28;20049;-77
2023/09/17 09:27:45;;;;;;;2.63;2.42;;;22.80;99.90;;;;;;5016083;28;20033;-76
2023/09/17 09:30:14;;;;;;;2.88;2.67;;;22.90;99.90;;;;;;5014615;28;20053;-77
2023/09/17 09:32:42;;;;;;;5.97;2.60;;;23.00;99.90;;;;;;5014603;28;20057;-77
2023/09/17 09:35:08;;;;;;;2.80;2.40;;;22.90;99.90;;;;;;5014224;28;20117;-78
2023/09/17 09:37:35;;;;;;;8.90;2.63;;;22.90;99.90;;;;;;5015458;28;20069;-77
2023/09/17 09:40:01;;;;;;;2.78;2.58;;;23.00;99.90;;;;;;5015694;28;20488;-77
2023/09/17 09:42:27;;;;;;;5.32;2.58;;;23.00;99.90;;;;;;5014471;28;20487;-78
2023/09/17 09:44:53;;;;;;;3.15;2.85;;;23.10;99.90;;;;;;5015582;28;20026;-78
2023/09/17 09:47:22;;;;;;;3.08;2.78;;;23.30;99.90;;;;;;5014354;28;20510;-77
2023/09/17 09:49:48;;;;;;;7.25;2.92;;;23.30;99.90;;;;;;5014206;28;20030;-78
2023/09/17 09:52:15;;;;;;;3.40;3.10;;;23.40;99.80;;;;;;5014308;28;20515;-76
2023/09/17 09:54:41;;;;;;;3.00;2.80;;;23.30;99.90;;;;;;5013970;28;20025;-76
2023/09/17 09:57:07;;;;;;;2.55;2.35;;;23.40;99.90;;;;;;5015132;28;20156;-76
2023/09/17 09:59:37;;;;;;;3.10;2.90;;;23.50;99.90;;;;;;5015213;28;20121;-76
2023/09/17 10:02:10;;;;;;;3.17;2.55;;;23.60;99.90;;;;;;5013846;28;20022;-77
2023/09/17 10:04:39;;;;;;;2.72;2.47;;;23.70;99.60;;;;;;5014844;28;20510;-78
2023/09/17 10:07:05;;;;;;;3.45;3.17;;;23.80;98.60;;;;;;5013756;28;20109;-77
2023/09/17 10:09:31;;;;;;;2.22;2.13;;;23.90;98.70;;;;;;5014833;28;20030;-78
2023/09/17 10:11:58;;;;;;;3.75;2.35;;;24.00;98.60;;;;;;5014999;28;20026;-77
2023/09/17 10:14:25;;;;;;;2.20;2.00;;;24.20;97.40;;;;;;5013524;28;20121;-76
2023/09/17 10:16:51;;;;;;;2.40;2.20;;;24.20;96.50;;;;;;5013689;28;20030;-77
2023/09/17 10:19:21;;;;;;;2.90;2.60;;;24.10;97.10;;;;;;5014918;28;20447;-77
2023/09/17 10:21:48;;;;;;;2.60;2.40;;;24.10;97.00;;;;;;5013576;28;20037;-77
2023/09/17 10:24:17;;;;;;;2.35;2.15;;;24.20;97.50;;;;;;5013362;28;20399;-77
2023/09/17 10:26:44;;;;;;;3.17;2.80;;;24.20;97.10;;;;;;5013455;28;20400;-77
2023/09/17 10:29:12;;;;;;;3.83;2.80;;;24.30;97.20;;;;;;5014650;28;20032;-77
2023/09/17 10:31:39;;;;;;;2.47;2.28;;;24.30;96.80;;;;;;5012298;28;20022;-77
2023/09/17 10:34:05;;;;;;;3.33;2.67;;;24.40;96.70;;;;;;5013007;28;20076;-78
2023/09/17 10:36:33;;;;;;;4.35;2.50;;;24.40;96.10;;;;;;5013328;28;20022;-77
2023/09/17 10:38:59;;;;;;;3.15;2.92;;;24.40;96.10;;;;;;5014760;28;20040;-77
2023/09/17 10:41:29;;;;;;;6.35;2.70;;;24.50;96.20;;;;;;5014496;28;20503;-78
2023/09/17 10:43:59;;;;;;;3.03;2.72;;;24.60;95.50;;;;;;5013138;28;20557;-77
2023/09/17 10:46:27;;;;;;;2.42;2.22;;;24.50;95.40;;;;;;5014371;28;20022;-76
2023/09/17 10:48:54;;;;;;;5.55;2.65;;;24.60;95.60;;;;;;5014071;28;20022;-77
2023/09/17 10:51:20;;;;;;;2.55;2.35;;;24.60;94.30;;;;;;5013040;28;20026;-77
2023/09/17 10:53:46;;;;;;;2.75;2.55;;;24.70;94.50;;;;;;5012913;28;20073;-78
2023/09/17 10:56:15;;;;;;;2.47;2.33;;;24.70;93.60;;;;;;5013036;28;20018;-77
2023/09/17 10:58:52;;;;;;;2.80;2.50;;;24.80;92.60;;;;;;5013088;28;20052;-77
2023/09/17 11:01:30;;;;;;;2.63;2.35;;;24.80;92.90;;;;;;5012959;28;20022;-78
2023/09/17 11:04:02;;;;;;;2.53;2.33;;;24.80;93.00;;;;;;5013814;28;20519;-77
2023/09/17 11:06:31;;;;;;;2.40;2.13;;;24.90;92.40;;;;;;5012820;28;20029;-77
2023/09/17 11:08:57;;;;;;;2.00;1.90;;;24.90;93.40;;;;;;5012567;28;20024;-77
2023/09/17 11:11:32;;;;;;;3.20;2.33;;;24.80;93.00;;;;;;5013774;28;20176;-76
2023/09/17 11:13:58;;;;;;;2.67;2.47;;;25.00;93.20;;;;;;5013724;28;20053;-77
2023/09/17 11:16:26;;;;;;;3.33;2.17;;;25.00;92.00;;;;;;5012595;28;20112;-76
2023/09/17 11:19:16;;;;;;;2.13;2.03;;;25.10;92.30;;;;;;5013894;28;20021;-79
2023/09/17 11:22:06;;;;;;;2.17;2.08;;;25.00;91.40;;;;;;5012580;28;20026;-77
2023/09/17 11:24:33;;;;;;;2.08;1.92;;;25.00;91.40;;;;;;5012170;28;20044;-78
2023/09/17 11:27:04;;;;;;;2.22;2.03;;;25.00;91.20;;;;;;5012256;28;20022;-78
2023/09/17 11:29:48;;;;;;;2.30;2.13;;;25.20;91.40;;;;;;5013373;28;20579;-78
2023/09/17 11:32:21;;;;;;;2.63;2.20;;;25.10;90.90;;;;;;5012223;28;20026;-77
2023/09/17 11:34:47;;;;;;;2.40;2.17;;;25.20;91.30;;;;;;5013027;28;20029;-77
2023/09/17 11:37:15;;;;;;;2.45;2.25;;;25.30;92.50;;;;;;5011935;28;20061;-77
2023/09/17 11:39:52;;;;;;;2.65;1.92;;;25.50;91.40;;;;;;5012107;28;20033;-77
2023/09/17 11:42:21;;;;;;;2.20;2.00;;;25.50;90.50;;;;;;5012177;28;20551;-77
2023/09/17 11:44:48;;;;;;;2.50;2.20;;;25.50;90.90;;;;;;5011514;28;20448;-77
2023/09/17 11:47:14;;;;;;;2.40;2.20;;;25.50;91.40;;;;;;5011807;28;20030;-77
2023/09/17 11:49:40;;;;;;;2.08;1.95;;;25.50;90.80;;;;;;5011786;28;20030;-77
2023/09/17 11:52:15;;;;;;;3.83;2.53;;;25.50;91.10;;;;;;5012077;28;20483;-78
2023/09/17 11:54:51;;;;;;;2.30;2.00;;;25.50;90.90;;;;;;5013086;28;20097;-77
2023/09/17 11:57:26;;;;;;;2.55;2.25;;;25.50;91.20;;;;;;5011906;28;20037;-79
2023/09/17 11:59:53;;;;;;;3.15;2.15;;;25.50;91.10;;;;;;5011854;28;20053;-77
2023/09/17 12:02:19;;;;;;;3.30;1.83;;;25.70;90.30;;;;;;5013143;28;20026;-78
2023/09/17 12:04:45;;;;;;;3.35;2.00;;;25.80;90.10;;;;;;5011549;28;20514;-79
2023/09/17 12:07:12;;;;;;;1.90;1.75;;;25.70;87.30;;;;;;5027083;28;20033;-77
2023/09/17 12:12:05;;;;;;;2.33;2.13;;;25.80;87.20;;;;;;5034167;28;20072;-77
2023/09/17 12:14:34;;;;;;;3.35;2.38;;;25.90;89.80;;;;;;5015093;28;20492;-76
2023/09/17 12:17:03;;;;;;;6.88;2.28;;;26.00;89.60;;;;;;5011515;28;20022;-76
2023/09/17 12:19:30;;;;;;;1.90;1.80;;;26.10;85.80;;;;;;5012766;28;20460;-77
2023/09/17 12:21:58;;;;;;;2.30;2.15;;;26.00;86.70;;;;;;5011692;28;20022;-77
2023/09/17 12:24:37;;;;;;;2.35;2.15;;;26.10;88.20;;;;;;5012416;28;20085;-77
2023/09/17 12:27:36;;;;;;;2.92;2.35;;;26.10;88.40;;;;;;5011442;28;20033;-77
2023/09/17 12:30:05;;;;;;;1.98;1.85;;;26.10;85.60;;;;;;5012684;28;20029;-76
2023/09/17 12:32:34;;;;;;;2.35;2.00;;;26.10;86.50;;;;;;5011384;28;20492;-77
2023/09/17 12:34:59;;;;;;;2.05;1.95;;;26.20;86.30;;;;;;5011014;28;20022;-76
2023/09/17 12:37:26;;;;;;;5.10;2.00;;;26.00;85.70;;;;;;5011024;28;20436;-78
2023/09/17 12:39:52;;;;;;;1.67;1.58;;;26.00;85.20;;;;;;5012510;28;20546;-76
2023/09/17 12:42:20;;;;;;;2.08;1.50;;;26.00;85.50;;;;;;5012907;28;20495;-77
2023/09/17 12:44:46;;;;;;;3.83;2.08;;;26.00;85.10;;;;;;5012158;28;20415;-76
2023/09/17 12:47:12;;;;;;;6.18;1.90;;;26.20;85.50;;;;;;5010324;28;20026;-78